createdAt,value
2019-02-23T00:03:17.132Z,70.20
2019-02-23T00:09:19.393Z,69.10
2019-02-23T00:15:21.758Z,69.20
2019-02-23T00:21:24.022Z,70.10
2019-02-23T00:27:26.289Z,69.90
2019-02-23T00:33:28.590Z,69.90
2019-02-23T00:39:30.730Z,70.90
2019-02-23T00:45:32.937Z,70.20
2019-02-23T00:51:35.134Z,68.40
2019-02-23T00:57:37.452Z,67.60
2019-02-23T01:03:39.670Z,65.80
2019-02-23T01:09:41.916Z,65.00
2019-02-23T01:15:45.276Z,66.00
2019-02-23T01:21:47.520Z,66.40
2019-02-23T01:27:49.776Z,65.50
2019-02-23T01:33:52.020Z,68.60
2019-02-23T01:39:54.386Z,70.10
2019-02-23T01:45:56.775Z,70.80
2019-02-23T01:51:58.930Z,70.90
2019-02-23T01:58:01.265Z,72.80
2019-02-23T02:04:04.556Z,73.80
2019-02-23T02:10:08.157Z,74.00
2019-02-23T02:16:10.438Z,76.40
2019-02-23T02:22:12.691Z,76.90
2019-02-23T02:28:14.972Z,77.20
2019-02-23T02:34:17.237Z,78.10
2019-02-23T02:40:19.463Z,76.50
2019-02-23T02:46:21.668Z,75.20
2019-02-23T02:52:23.841Z,75.40
2019-02-23T02:58:26.297Z,75.80
2019-02-23T03:04:28.536Z,76.60
2019-02-23T03:10:30.806Z,75.40
2019-02-23T03:16:33.000Z,76.10
2019-02-23T03:22:35.275Z,75.30
2019-02-23T03:28:37.524Z,74.50
2019-02-23T03:34:39.741Z,75.00
2019-02-23T03:40:41.912Z,75.00
2019-02-23T03:46:44.227Z,75.70
2019-02-23T03:52:46.596Z,76.20
2019-02-23T03:58:48.986Z,76.60
2019-02-23T04:04:51.224Z,77.30
2019-02-23T04:10:53.463Z,78.10
2019-02-23T04:16:55.715Z,79.00
2019-02-23T04:22:57.889Z,79.40
2019-02-23T04:29:00.168Z,79.20
2019-02-23T04:35:02.382Z,78.40
2019-02-23T04:41:04.686Z,78.90
2019-02-23T04:47:06.953Z,79.90
2019-02-23T04:53:09.087Z,80.00
2019-02-23T04:59:11.400Z,79.80
2019-02-23T05:05:14.851Z,80.70
2019-02-23T05:11:17.149Z,81.50
2019-02-23T05:17:19.413Z,82.10
2019-02-23T05:23:22.760Z,81.50
2019-02-23T05:29:24.985Z,82.00
2019-02-23T05:35:27.334Z,82.60
2019-02-23T05:41:29.596Z,82.30
2019-02-23T05:47:31.981Z,81.40
2019-02-23T05:53:34.173Z,81.00
2019-02-23T05:59:36.568Z,81.50
2019-02-23T06:05:38.888Z,81.40
2019-02-23T06:11:41.154Z,80.90
2019-02-23T06:17:43.421Z,81.60
2019-02-23T06:23:45.664Z,81.40
2019-02-23T06:29:47.953Z,80.90
2019-02-23T06:35:50.243Z,80.00
2019-02-23T06:41:52.512Z,81.30
2019-02-23T06:47:54.785Z,83.70
2019-02-23T06:53:56.996Z,81.70
2019-02-23T06:59:59.307Z,81.70
2019-02-23T07:06:01.535Z,79.70
2019-02-23T07:12:03.735Z,78.90
2019-02-23T07:18:06.123Z,76.60
2019-02-23T07:24:08.390Z,75.20
2019-02-23T07:30:11.883Z,75.00
2019-02-23T07:36:14.280Z,71.00
2019-02-23T07:42:16.667Z,68.30
2019-02-23T07:48:19.069Z,59.00
2019-02-23T07:54:21.312Z,59.40
2019-02-23T08:00:23.646Z,58.40
2019-02-23T08:06:25.875Z,53.30
2019-02-23T08:12:28.235Z,49.30
2019-02-23T08:18:30.500Z,45.10
2019-02-23T08:24:32.875Z,41.60
2019-02-23T08:30:35.136Z,39.30
2019-02-23T08:36:37.394Z,38.80
2019-02-23T08:42:39.739Z,38.20
2019-02-23T08:48:41.933Z,34.70
2019-02-23T08:54:44.112Z,37.50
2019-02-23T09:00:46.489Z,35.70
2019-02-23T09:06:48.677Z,34.20
2019-02-23T09:12:50.858Z,37.10
2019-02-23T09:18:53.163Z,37.50
2019-02-23T09:24:55.368Z,36.90
2019-02-23T09:30:57.682Z,34.50
2019-02-23T09:37:05.963Z,35.70
2019-02-23T09:43:08.143Z,35.50
2019-02-23T09:49:10.319Z,34.50
2019-02-23T09:55:12.699Z,36.40
2019-02-23T10:01:15.893Z,35.10
2019-02-23T10:07:18.142Z,35.70
2019-02-23T10:13:20.417Z,37.30
2019-02-23T10:19:22.613Z,34.90
2019-02-23T10:25:24.833Z,32.20
2019-02-23T10:31:27.191Z,30.90
2019-02-23T10:37:29.677Z,28.40
2019-02-23T10:43:32.931Z,28.70
2019-02-23T10:49:35.124Z,25.60
2019-02-23T10:55:37.352Z,24.40
2019-02-23T11:01:39.564Z,24.60
2019-02-23T11:07:42.020Z,26.10
2019-02-23T11:13:44.271Z,27.40
2019-02-23T11:19:46.747Z,26.90
2019-02-23T11:25:49.083Z,28.40
2019-02-23T11:31:51.502Z,29.70
2019-02-23T11:37:53.900Z,29.40
2019-02-23T11:43:56.348Z,29.10
2019-02-23T11:50:00.624Z,28.90
2019-02-23T11:56:02.916Z,29.50
2019-02-23T12:02:05.202Z,30.90
2019-02-23T12:08:07.581Z,28.80
2019-02-23T12:14:10.277Z,31.20
2019-02-23T12:20:12.791Z,29.50
2019-02-23T12:26:15.096Z,32.20
2019-02-23T12:32:17.720Z,30.30
2019-02-23T12:38:19.899Z,31.10
2019-02-23T12:44:22.032Z,33.00
2019-02-23T12:50:24.502Z,33.10
2019-02-23T12:56:28.001Z,33.00
2019-02-23T13:02:31.349Z,32.30
2019-02-23T13:09:11.682Z,32.70
2019-02-23T13:15:34.947Z,32.30
2019-02-23T13:21:47.883Z,33.70
2019-02-23T13:28:13.103Z,33.20
2019-02-23T13:35:00.307Z,31.30
2019-02-23T13:41:34.542Z,33.20
2019-02-23T13:47:53.764Z,31.70
2019-02-23T13:54:52.894Z,31.90
2019-02-23T14:01:47.160Z,32.20
2019-02-23T14:08:13.231Z,32.70
2019-02-23T14:14:50.150Z,34.40
2019-02-23T14:21:29.822Z,33.10
2019-02-23T14:28:02.025Z,33.50
2019-02-23T14:34:44.587Z,32.60
2019-02-23T14:41:18.783Z,34.10
2019-02-23T14:47:58.404Z,32.60
2019-02-23T14:54:33.773Z,32.30
2019-02-23T15:01:15.715Z,33.10
2019-02-23T15:08:04.180Z,33.70
2019-02-23T15:15:06.579Z,34.30
2019-02-23T15:21:26.892Z,34.70
2019-02-23T15:27:57.206Z,33.30
2019-02-23T15:34:46.234Z,35.50
2019-02-23T15:41:17.354Z,36.40
2019-02-23T15:47:42.024Z,37.10
2019-02-23T15:53:44.302Z,38.20
2019-02-23T15:59:50.365Z,36.80
2019-02-23T16:05:53.684Z,37.90
2019-02-23T16:11:58.099Z,39.20
2019-02-23T16:18:00.340Z,39.30
2019-02-23T16:24:02.617Z,39.60
2019-02-23T16:30:05.568Z,40.30
2019-02-23T16:36:08.304Z,40.70
2019-02-23T16:42:11.472Z,42.30
2019-02-23T16:48:13.724Z,44.00
2019-02-23T16:54:15.895Z,45.70
2019-02-23T17:00:18.177Z,47.50
2019-02-23T17:06:20.484Z,49.40
2019-02-23T17:12:22.748Z,50.70
2019-02-23T17:18:25.024Z,53.50
2019-02-23T17:24:27.371Z,54.70
2019-02-23T17:30:32.779Z,54.40
2019-02-23T17:36:34.975Z,55.60
2019-02-23T17:42:37.179Z,58.40
2019-02-23T17:48:39.457Z,60.10
2019-02-23T17:54:41.675Z,60.50
2019-02-23T18:00:44.049Z,61.20
2019-02-23T18:06:51.764Z,63.10
2019-02-23T18:12:53.987Z,63.00
2019-02-23T18:18:57.616Z,64.00
2019-02-23T18:24:59.959Z,65.60
2019-02-23T18:31:03.251Z,66.60
2019-02-23T18:37:05.512Z,66.10
2019-02-23T18:43:08.451Z,67.20
2019-02-23T18:49:12.872Z,67.30
2019-02-23T18:55:15.182Z,67.60
2019-02-23T19:01:17.647Z,66.90
2019-02-23T19:07:20.291Z,67.10
2019-02-23T19:13:22.779Z,67.50
2019-02-23T19:19:25.115Z,69.70
2019-02-23T19:25:27.595Z,70.70
2019-02-23T19:31:29.845Z,71.70
2019-02-23T19:37:35.027Z,70.40
2019-02-23T19:43:37.454Z,70.20
2019-02-23T19:49:39.681Z,70.10
2019-02-23T19:55:41.983Z,70.30
2019-02-23T20:01:44.966Z,69.30
2019-02-23T20:07:47.235Z,69.40
2019-02-23T20:13:49.648Z,71.50
2019-02-23T20:19:51.969Z,72.70
2019-02-23T20:25:55.041Z,73.30
2019-02-23T20:31:58.364Z,72.90
2019-02-23T20:38:00.707Z,72.90
2019-02-23T20:44:02.966Z,73.30
2019-02-23T20:50:06.023Z,74.30
2019-02-23T20:56:08.439Z,74.40
2019-02-23T21:02:10.749Z,75.20
2019-02-23T21:08:13.124Z,75.00
2019-02-23T21:14:15.497Z,74.90
2019-02-23T21:20:18.978Z,74.60
2019-02-23T21:26:24.943Z,75.00
2019-02-23T21:32:27.153Z,75.40
2019-02-23T21:38:29.467Z,76.00
2019-02-23T21:44:31.748Z,75.40
2019-02-23T21:50:34.045Z,75.40
2019-02-23T21:56:36.307Z,75.90
2019-02-23T22:02:39.078Z,75.40
2019-02-23T22:08:41.537Z,75.40
2019-02-23T22:14:45.933Z,75.70
2019-02-23T22:20:48.365Z,76.00
2019-02-23T22:26:50.935Z,75.70
2019-02-23T22:32:53.177Z,75.10
2019-02-23T22:38:55.618Z,73.60
2019-02-23T22:44:57.882Z,74.00
2019-02-23T22:51:00.175Z,74.50
2019-02-23T22:57:04.449Z,74.80
2019-02-23T23:03:09.101Z,74.60
2019-02-23T23:09:13.225Z,73.70
2019-02-23T23:15:15.597Z,73.90
2019-02-23T23:21:18.265Z,75.30
2019-02-23T23:27:21.441Z,75.50
2019-02-23T23:33:23.820Z,73.40
2019-02-23T23:39:26.128Z,73.50
2019-02-23T23:45:28.432Z,73.90
2019-02-23T23:51:30.688Z,74.90
2019-02-23T23:57:36.429Z,75.60
